Flight Track Log - Related Links

Times and Time Zones

All times are in EDT time to prevent confusion due to time zone crossing. See the ATN510 flight status page for this flight to view local times or setup timezone preferences in your user account.

Time Position Orientation Groundspeed Altitude Reporting Facility
EDT Latitude Longitude Course Direction KTS MPH feet Rate Location/Type
Wed 11:29:29 PM 39.9136 -74.6708 180° South 222 255 3,000  Level New York Center
Wed 11:30:29 PM 39.8600 -74.6514 164° South 217 250 3,900 1,319 Climbing New York Center
Wed 11:32:31 PM 39.7367 -74.6067 164° South 233 268 7,000 1,392 Climbing Washington Center
Wed 11:33:00 PM 39.6592 -74.5667 180° South  Level FlightAware Approximate
Wed 11:33:30 PM 39.6739 -74.5778 160° South 239 275 8,100  Level Washington Center
Wed 11:34:31 PM 39.6008 -74.5761 179° South 250 288 8,000 98 Descending Washington Center
Wed 11:35:32 PM 39.5322 -74.5878 187° South 255 293 8,300 814 Climbing Washington Center
Wed 11:36:29 PM 39.4953 -74.6744 241° Southwest 231 266 9,600 1,271 Climbing Washington Center
Wed 11:37:30 PM 39.4689 -74.7689 250° West 247 284 10,800 689 Climbing Washington Center
Wed 11:38:31 PM 39.4383 -74.8661 248° West 273 314 11,000 98 Climbing Washington Center
Wed 11:39:32 PM 39.4078 -74.9658 248° West 294 338 11,000  Level Washington Center
Wed 11:40:30 PM 39.3747 -75.0708 248° West 305 351 11,000  Level Washington Center
Wed 11:41:30 PM 39.3439 -75.1703 248° West 311 358 11,000  Level Washington Center
Wed 11:42:32 PM 39.3131 -75.2669 248° West 306 352 11,000 -50 Level Washington Center
Wed 11:43:31 PM 39.2842 -75.3611 248° West 301 346 10,900 -564 Descending Washington Center
Wed 11:44:29 PM 39.2550 -75.4494 247° West 288 331 9,900 -1,169 Descending Washington Center
Wed 11:45:29 PM 39.2322 -75.5406 252° West 275 316 8,600 -934 Descending Washington Center
Wed 11:46:31 PM 39.2217 -75.6292 261° West 262 302 8,000 -246 Descending Washington Center
Wed 11:47:31 PM 39.2114 -75.7094 261° West 246 283 8,100 50 Climbing Washington Center
Wed 11:48:31 PM 39.2028 -75.8031 263° West 246 283 8,100 -102 Level Washington Center
Wed 11:49:29 PM 39.1964 -75.8889 265° West 251 289 7,900 -504 Descending Washington Center
Wed 11:50:30 PM 39.1942 -75.9772 268° West 251 289 7,100 -850 Descending Washington Center
Wed 11:51:29 PM 39.1856 -76.0575 262° West 251 289 6,200 -600 Descending Washington Center
Wed 11:52:30 PM 39.1789 -76.1431 264° West 251 289 5,900 -537 Descending Washington Center
Wed 11:53:32 PM 39.1700 -76.2342 263° West 252 290 5,100 -1,008 Descending Washington Center
Wed 11:54:29 PM 39.1633 -76.3197 264° West 252 290 3,900 -1,038 Descending Washington Center
Wed 11:55:16 PM 39.1667 -76.3833 274° West 236 272 3,300 -655 Descending Potomac TRACON
Wed 11:56:28 PM 39.1667 -76.4833 270° West 184 212 2,600 -619 Descending Potomac TRACON
Wed 11:57:22 PM 39.1667 -76.5333 270° West 174 200 2,000 -722 Descending Potomac TRACON
Wed 11:58:16 PM 39.1667 -76.5833 270° West 162 186 1,300 -789 Descending Potomac TRACON
Wed 11:59:16 PM 39.1667 -76.6333 270° West 151 174 500 -800 Descending Potomac TRACON
Thu 12:01:00 AM 39.1667 -76.6667 270° West  Level FlightAware Approximate
Thu 12:08:00 AM 39.1754 -76.6683 270° West  Level Estimated
Thu 12:09:00 AM 39.1754 -76.6683 270° West  Level Estimated
Thu 12:10:00 AM 39.1754 -76.6683 270° West  Level Estimated
Thu 12:11:00 AM 39.1754 -76.6683 270° West  Level Estimated
Thu 12:12:00 AM 39.1754 -76.6683 270° West  Level Estimated
Thu 12:13:00 AM 39.1754 -76.6683 270° West  Level Estimated
Thu 12:14:00 AM 39.1754 -76.6683 270° West  Level Estimated

Login

Don't have an account? Register now (free) for customized features, flight alerts, and more!